createdAt,value
2022-11-22T00:02:26.728Z,64.80
2022-11-22T00:04:57.600Z,66.00
2022-11-22T00:07:28.411Z,64.80
2022-11-22T00:09:59.262Z,64.30
2022-11-22T00:12:30.001Z,67.20
2022-11-22T00:15:00.747Z,65.90
2022-11-22T00:17:34.711Z,67.80
2022-11-22T00:20:05.997Z,67.30
2022-11-22T00:22:42.749Z,67.30
2022-11-22T00:25:15.161Z,70.20
2022-11-22T00:27:46.035Z,66.00
2022-11-22T00:30:17.301Z,69.80
2022-11-22T00:32:52.545Z,65.60
2022-11-22T00:35:28.669Z,68.50
2022-11-22T00:37:59.518Z,65.20
2022-11-22T00:40:30.511Z,68.00
2022-11-22T00:43:03.552Z,65.10
2022-11-22T00:45:34.760Z,69.90
2022-11-22T00:48:09.019Z,66.80
2022-11-22T00:50:40.037Z,65.60
2022-11-22T00:53:11.055Z,67.00
2022-11-22T00:55:42.075Z,70.50
2022-11-22T00:58:14.204Z,66.20
2022-11-22T01:00:45.536Z,67.10
2022-11-22T01:03:19.015Z,67.00
2022-11-22T01:05:50.200Z,63.60
2022-11-22T01:08:20.900Z,70.40
2022-11-22T01:10:51.804Z,66.40
2022-11-22T01:13:23.840Z,65.50
2022-11-22T01:15:56.888Z,65.70
2022-11-22T01:18:32.523Z,71.20
2022-11-22T01:21:03.758Z,65.20
2022-11-22T01:23:36.170Z,67.40
2022-11-22T01:26:09.036Z,66.30
2022-11-22T01:28:39.861Z,66.20
2022-11-22T01:31:10.653Z,66.80
2022-11-22T01:33:46.480Z,71.90
2022-11-22T01:36:17.311Z,74.50
2022-11-22T01:38:48.037Z,75.90
2022-11-22T01:41:18.779Z,76.30
2022-11-22T01:43:51.022Z,88.40
2022-11-22T01:46:32.564Z,94.00
2022-11-22T01:49:09.938Z,99.90
2022-11-22T01:51:43.690Z,99.90
2022-11-22T01:54:18.344Z,99.90
2022-11-22T01:56:53.087Z,99.90
2022-11-22T01:59:27.710Z,99.90
2022-11-22T02:01:59.563Z,99.90
2022-11-22T02:04:35.611Z,99.90
2022-11-22T02:07:11.905Z,99.90
2022-11-22T02:09:44.531Z,99.90
2022-11-22T02:12:20.087Z,99.90
2022-11-22T02:14:51.618Z,99.90
2022-11-22T02:17:22.375Z,99.90
2022-11-22T02:19:56.312Z,99.90
2022-11-22T02:22:35.769Z,99.90
2022-11-22T02:25:10.985Z,99.90
2022-11-22T02:27:44.953Z,99.90
2022-11-22T02:30:16.253Z,99.90
2022-11-22T02:32:47.587Z,99.90
2022-11-22T02:35:22.911Z,99.90
2022-11-22T02:37:59.776Z,99.90
2022-11-22T02:40:34.248Z,99.90
2022-11-22T02:43:11.517Z,99.90
2022-11-22T02:45:42.239Z,99.90
2022-11-22T02:51:58.058Z,99.90
2022-11-22T02:54:29.003Z,99.90
2022-11-22T02:57:00.102Z,99.90
2022-11-22T02:59:33.660Z,99.90
2022-11-22T03:02:06.726Z,99.90
2022-11-22T03:04:37.561Z,99.90
2022-11-22T03:07:09.690Z,99.90
2022-11-22T03:09:40.651Z,99.90
2022-11-22T03:12:13.102Z,99.90
2022-11-22T03:17:35.889Z,99.90
2022-11-22T03:20:10.443Z,99.90
2022-11-22T03:22:41.198Z,99.90
2022-11-22T03:25:12.356Z,99.90
2022-11-22T03:27:43.025Z,99.90
2022-11-22T03:30:15.714Z,99.90
2022-11-22T03:32:49.309Z,99.90
2022-11-22T03:35:20.578Z,99.90
2022-11-22T03:37:51.314Z,99.90
2022-11-22T03:40:22.478Z,99.90
2022-11-22T03:42:53.181Z,99.90
2022-11-22T03:45:24.505Z,99.90
2022-11-22T03:47:58.786Z,99.90
2022-11-22T03:50:29.682Z,99.90
2022-11-22T03:53:00.815Z,99.90
2022-11-22T03:55:32.929Z,99.90
2022-11-22T03:58:03.902Z,99.90
2022-11-22T04:00:35.330Z,99.90
2022-11-22T04:03:14.509Z,99.90
2022-11-22T04:05:45.276Z,99.90
2022-11-22T04:08:16.689Z,99.90
2022-11-22T04:10:47.562Z,99.90
2022-11-22T04:13:18.374Z,99.90
2022-11-22T04:15:48.514Z,99.90
2022-11-22T04:18:21.855Z,99.90
2022-11-22T04:21:05.434Z,99.90
2022-11-22T04:23:36.199Z,99.90
2022-11-22T04:26:04.334Z,99.90
2022-11-22T04:29:01.959Z,99.90
2022-11-22T04:31:38.762Z,99.90
2022-11-22T04:34:12.172Z,99.90
2022-11-22T04:36:43.176Z,99.90
2022-11-22T04:39:14.456Z,99.90
2022-11-22T04:41:46.754Z,99.90
2022-11-22T04:44:29.930Z,99.90
2022-11-22T04:47:01.176Z,99.90
2022-11-22T04:49:34.462Z,99.90
2022-11-22T04:52:19.750Z,99.90
2022-11-22T04:54:50.580Z,99.90
2022-11-22T04:57:21.364Z,99.90
2022-11-22T04:59:52.079Z,99.90
2022-11-22T05:02:24.135Z,99.90
2022-11-22T05:04:57.461Z,99.90
2022-11-22T05:07:28.478Z,99.90
2022-11-22T05:10:04.685Z,99.90
2022-11-22T05:12:36.753Z,99.90
2022-11-22T05:15:11.398Z,99.90
2022-11-22T05:17:43.443Z,99.90
2022-11-22T05:20:17.534Z,99.90
2022-11-22T05:23:01.016Z,99.90
2022-11-22T05:25:32.240Z,99.90
2022-11-22T05:28:02.993Z,99.90
2022-11-22T05:30:33.764Z,99.90
2022-11-22T05:33:08.966Z,99.90
2022-11-22T05:35:47.375Z,99.90
2022-11-22T05:38:18.648Z,99.90
2022-11-22T05:40:50.645Z,99.90
2022-11-22T05:43:21.414Z,99.90
2022-11-22T05:45:52.159Z,99.90
2022-11-22T05:48:23.178Z,99.90
2022-11-22T05:50:56.569Z,99.90
2022-11-22T05:53:27.626Z,99.90
2022-11-22T05:55:58.434Z,99.90
2022-11-22T05:58:29.243Z,99.90
2022-11-22T06:01:05.921Z,99.90
2022-11-22T06:03:37.575Z,99.90
2022-11-22T06:06:13.386Z,99.90
2022-11-22T06:08:47.721Z,99.90
2022-11-22T06:11:22.157Z,99.90
2022-11-22T06:13:58.405Z,99.90
2022-11-22T06:16:29.819Z,99.90
2022-11-22T06:19:00.669Z,99.90
2022-11-22T06:21:33.994Z,99.90
2022-11-22T06:24:05.140Z,99.90
2022-11-22T06:26:39.244Z,99.90
2022-11-22T06:29:10.449Z,99.90
2022-11-22T06:31:41.189Z,99.90
2022-11-22T06:34:14.852Z,99.90
2022-11-22T06:36:48.178Z,99.90
2022-11-22T06:39:18.949Z,99.90
2022-11-22T06:44:40.382Z,99.90
2022-11-22T06:47:11.123Z,99.90
2022-11-22T06:49:44.784Z,99.90
2022-11-22T06:52:18.102Z,99.90
2022-11-22T06:54:53.366Z,99.90
2022-11-22T06:57:25.323Z,99.90
2022-11-22T06:59:57.329Z,99.90
2022-11-22T07:02:31.416Z,99.90
2022-11-22T07:05:24.523Z,99.90
2022-11-22T07:08:00.826Z,99.90
2022-11-22T07:10:36.664Z,99.90
2022-11-22T07:13:10.135Z,99.90
2022-11-22T07:15:41.038Z,99.90
2022-11-22T07:18:14.689Z,99.90
2022-11-22T07:20:47.549Z,99.90
2022-11-22T07:23:21.002Z,99.90
2022-11-22T07:25:54.351Z,99.90
2022-11-22T07:28:25.235Z,99.90
2022-11-22T07:30:56.194Z,99.90
2022-11-22T07:33:26.958Z,99.90
2022-11-22T07:35:58.235Z,95.70
2022-11-22T07:38:32.950Z,93.70
2022-11-22T07:41:04.848Z,94.00
2022-11-22T07:43:35.971Z,88.40
2022-11-22T07:46:08.778Z,88.70
2022-11-22T07:48:40.846Z,82.80
2022-11-22T07:51:11.944Z,81.10
2022-11-22T07:53:45.839Z,72.20
2022-11-22T07:56:17.100Z,70.40
2022-11-22T07:58:47.916Z,69.90
2022-11-22T08:01:21.767Z,67.60
2022-11-22T08:03:52.941Z,65.80
2022-11-22T08:06:23.736Z,62.70
2022-11-22T08:09:02.008Z,61.10
2022-11-22T08:11:33.246Z,66.10
2022-11-22T08:14:04.464Z,63.30
2022-11-22T08:16:35.426Z,60.60
2022-11-22T08:19:07.922Z,59.50
2022-11-22T08:21:39.563Z,56.30
2022-11-22T08:24:13.198Z,57.80
2022-11-22T08:26:44.689Z,57.50
2022-11-22T08:29:15.868Z,53.10
2022-11-22T08:31:48.255Z,50.90
2022-11-22T08:34:21.517Z,51.90
2022-11-22T08:37:00.861Z,54.20
2022-11-22T08:39:53.369Z,52.30
2022-11-22T08:42:24.611Z,51.70
2022-11-22T08:44:58.730Z,49.00
2022-11-22T08:47:34.340Z,46.80
2022-11-22T08:50:05.414Z,46.60
2022-11-22T08:52:37.434Z,46.90
2022-11-22T08:55:12.010Z,44.00
2022-11-22T08:57:44.755Z,42.50
2022-11-22T09:00:17.098Z,41.30
2022-11-22T09:02:47.991Z,39.80
2022-11-22T09:05:18.932Z,38.40
2022-11-22T09:10:46.267Z,36.40
2022-11-22T09:13:19.708Z,34.70
2022-11-22T09:15:50.495Z,36.00
2022-11-22T09:18:21.256Z,36.10
2022-11-22T09:20:52.657Z,34.10
2022-11-22T09:23:23.737Z,32.20
2022-11-22T09:26:02.834Z,32.20
2022-11-22T09:28:34.876Z,29.90
2022-11-22T09:31:07.210Z,30.90
2022-11-22T09:33:39.556Z,30.00
2022-11-22T09:36:12.736Z,28.40
2022-11-22T09:38:45.510Z,28.90
2022-11-22T09:41:31.017Z,28.90
2022-11-22T09:44:11.535Z,29.90
2022-11-22T09:46:59.624Z,28.50
2022-11-22T09:49:35.904Z,28.00
2022-11-22T09:52:12.023Z,26.80
2022-11-22T09:54:47.503Z,27.10
2022-11-22T09:57:27.844Z,26.70
2022-11-22T10:00:06.102Z,25.40
2022-11-22T10:02:59.502Z,26.40
2022-11-22T10:05:37.366Z,26.20
2022-11-22T10:08:24.408Z,26.20
2022-11-22T10:10:59.217Z,25.30
2022-11-22T10:13:41.410Z,25.00
2022-11-22T10:16:19.654Z,25.60
2022-11-22T10:18:57.092Z,22.80
2022-11-22T10:21:29.337Z,23.70
2022-11-22T10:24:00.387Z,23.50
2022-11-22T10:26:34.488Z,25.00
2022-11-22T10:29:20.688Z,24.00
2022-11-22T10:31:57.529Z,24.90
2022-11-22T10:34:36.358Z,23.70
2022-11-22T10:37:15.519Z,24.10
2022-11-22T10:40:14.562Z,23.10
2022-11-22T10:43:14.149Z,23.90
2022-11-22T10:45:51.914Z,22.00
2022-11-22T10:48:31.333Z,20.80
2022-11-22T10:51:13.016Z,20.80
2022-11-22T10:53:55.492Z,21.10
2022-11-22T10:56:32.934Z,21.90
2022-11-22T10:59:28.981Z,22.40
2022-11-22T11:02:16.372Z,23.10
2022-11-22T11:04:49.037Z,23.00
2022-11-22T11:07:24.543Z,22.40
2022-11-22T11:10:23.572Z,23.00
2022-11-22T11:12:53.030Z,21.20
2022-11-22T11:15:26.306Z,22.60
2022-11-22T11:18:03.936Z,22.40
2022-11-22T11:20:40.355Z,21.90
2022-11-22T11:23:15.227Z,20.80
2022-11-22T11:25:48.824Z,19.60
2022-11-22T11:28:22.819Z,20.60
2022-11-22T11:30:57.791Z,21.10
2022-11-22T11:33:34.940Z,20.10
2022-11-22T11:36:09.458Z,21.20
2022-11-22T11:38:52.557Z,21.30
2022-11-22T11:41:30.791Z,19.80
2022-11-22T11:44:03.275Z,21.50
2022-11-22T11:46:49.166Z,20.50
2022-11-22T11:49:27.523Z,19.90
2022-11-22T11:51:59.945Z,20.30
2022-11-22T12:55:28.801Z,13.50
2022-11-22T12:58:06.259Z,15.10
2022-11-22T13:00:42.450Z,14.20
2022-11-22T13:03:18.494Z,14.20
2022-11-22T13:05:54.615Z,13.60
2022-11-22T13:08:31.371Z,13.40
2022-11-22T13:11:14.896Z,14.30
2022-11-22T13:13:48.959Z,14.40
2022-11-22T13:16:19.999Z,14.40
2022-11-22T13:18:58.758Z,13.50
2022-11-22T13:21:37.860Z,13.60
2022-11-22T13:24:32.363Z,15.00
2022-11-22T13:27:18.676Z,15.60
2022-11-22T13:29:55.689Z,15.10
2022-11-22T13:32:32.732Z,14.40
2022-11-22T13:35:08.648Z,14.50
2022-11-22T13:37:43.170Z,14.70
2022-11-22T13:40:29.768Z,14.80
2022-11-22T13:43:30.597Z,15.10
2022-11-22T13:46:05.489Z,13.20
2022-11-22T13:49:10.666Z,11.70
2022-11-22T13:51:57.342Z,13.00
2022-11-22T13:55:01.094Z,14.20
2022-11-22T13:57:39.246Z,15.00
2022-11-22T14:00:43.050Z,13.80
2022-11-22T14:03:42.904Z,14.30
2022-11-22T14:06:29.484Z,14.60
2022-11-22T14:09:19.494Z,15.00
2022-11-22T14:11:57.119Z,15.00
2022-11-22T14:14:36.866Z,15.00
2022-11-22T14:17:18.591Z,14.80
2022-11-22T14:20:04.686Z,14.90
2022-11-22T14:22:48.962Z,14.40
2022-11-22T14:25:47.239Z,15.10
2022-11-22T14:28:33.228Z,14.90
2022-11-22T14:31:16.304Z,15.40
2022-11-22T14:34:18.083Z,16.20
2022-11-22T14:37:26.590Z,16.10
2022-11-22T14:40:29.967Z,17.10
2022-11-22T14:43:03.329Z,16.40
2022-11-22T14:45:47.925Z,15.90
2022-11-22T14:48:24.439Z,16.60
2022-11-22T14:51:01.185Z,16.50
2022-11-22T14:53:37.558Z,16.40
2022-11-22T14:56:18.174Z,17.00
2022-11-22T14:59:01.858Z,16.80
2022-11-22T15:02:02.179Z,17.60
2022-11-22T15:09:13.689Z,16.50
2022-11-22T15:09:27.985Z,17.20
2022-11-22T15:11:39.039Z,18.70
2022-11-22T15:14:42.956Z,18.10
2022-11-22T15:58:16.612Z,20.30
2022-11-22T16:00:50.103Z,20.30
2022-11-22T16:03:37.403Z,20.50
2022-11-22T16:06:12.237Z,20.90
2022-11-22T16:08:51.367Z,20.80
2022-11-22T16:11:24.443Z,21.90
2022-11-22T16:13:55.466Z,22.20
2022-11-22T16:16:33.062Z,22.60
2022-11-22T16:19:25.634Z,23.00
2022-11-22T16:22:06.771Z,24.10
2022-11-22T16:24:37.969Z,24.70
2022-11-22T16:27:17.568Z,24.40
2022-11-22T16:29:53.983Z,25.20
2022-11-22T16:32:27.411Z,25.10
2022-11-22T16:35:21.812Z,25.20
2022-11-22T16:37:49.587Z,26.10
2022-11-22T16:40:20.472Z,26.90
2022-11-22T16:42:51.176Z,26.60
2022-11-22T16:45:26.224Z,27.10
2022-11-22T16:48:24.566Z,27.90
2022-11-22T16:50:59.738Z,28.90
2022-11-22T16:53:37.392Z,29.30
2022-11-22T16:56:08.917Z,30.60
2022-11-22T16:58:39.702Z,30.60
2022-11-22T17:01:16.557Z,31.40
2022-11-22T17:03:52.649Z,31.50
2022-11-22T17:06:25.649Z,32.80
2022-11-22T17:08:58.376Z,33.50
2022-11-22T17:11:33.714Z,34.00
2022-11-22T17:14:06.735Z,35.20
2022-11-22T17:16:39.862Z,37.10
2022-11-22T17:22:06.805Z,36.90
2022-11-22T17:24:38.425Z,36.80
2022-11-22T17:27:09.632Z,37.40
2022-11-22T17:29:50.183Z,38.00
2022-11-22T17:32:22.117Z,37.80
2022-11-22T17:34:56.518Z,37.80
2022-11-22T17:37:29.501Z,38.10
2022-11-22T17:40:00.293Z,39.60
2022-11-22T17:42:35.519Z,40.50
2022-11-22T17:45:10.238Z,42.00
2022-11-22T17:47:40.982Z,42.00
2022-11-22T17:50:14.659Z,43.00
2022-11-22T17:52:45.393Z,43.30
2022-11-22T17:55:19.238Z,43.10
2022-11-22T17:57:54.560Z,43.10
2022-11-22T18:00:30.082Z,42.50
2022-11-22T18:03:08.008Z,43.00
2022-11-22T18:05:41.958Z,44.10
2022-11-22T18:08:12.743Z,44.10
2022-11-22T18:10:43.545Z,44.80
2022-11-22T18:13:21.272Z,46.70
2022-11-22T18:15:58.628Z,47.10
2022-11-22T18:18:55.787Z,47.30
2022-11-22T18:21:29.201Z,48.20
2022-11-22T18:24:03.122Z,49.00
2022-11-22T18:26:41.760Z,50.30
2022-11-22T18:29:41.146Z,51.20
2022-11-22T18:32:06.221Z,50.60
2022-11-22T18:34:37.059Z,51.70
2022-11-22T18:37:10.459Z,51.50
2022-11-22T18:39:42.255Z,51.00
2022-11-22T18:42:16.777Z,53.70
2022-11-22T18:44:47.521Z,54.20
2022-11-22T18:47:19.193Z,54.90
2022-11-22T18:49:50.817Z,56.90
2022-11-22T18:52:26.504Z,59.60
2022-11-22T18:54:57.402Z,61.00
2022-11-22T18:57:28.920Z,62.70
2022-11-22T18:59:59.704Z,67.90
2022-11-22T19:02:30.526Z,69.30
2022-11-22T19:05:02.902Z,69.50
2022-11-22T19:07:37.513Z,71.40
2022-11-22T19:10:09.983Z,71.70
2022-11-22T19:12:40.687Z,70.40
2022-11-22T19:15:13.890Z,71.30
2022-11-22T19:17:44.715Z,72.10
2022-11-22T19:20:39.093Z,72.90
2022-11-22T19:23:10.785Z,82.00
2022-11-22T19:25:42.691Z,86.80
2022-11-22T19:28:13.442Z,86.20
2022-11-22T19:30:44.550Z,89.70
2022-11-22T19:33:17.137Z,94.50
2022-11-22T19:35:59.731Z,96.30
2022-11-22T19:38:33.470Z,99.90
2022-11-22T19:41:04.241Z,99.90
2022-11-22T19:43:35.018Z,99.90
2022-11-22T19:46:05.862Z,99.90
2022-11-22T19:48:42.363Z,99.90
2022-11-22T19:51:17.680Z,99.90
2022-11-22T19:53:53.292Z,99.90
2022-11-22T19:56:26.699Z,99.90
2022-11-22T19:58:58.203Z,99.90
2022-11-22T20:01:33.489Z,99.90
2022-11-22T20:04:06.125Z,99.90
2022-11-22T20:06:38.072Z,99.90
2022-11-22T20:09:13.078Z,99.90
2022-11-22T20:11:45.454Z,99.90
2022-11-22T20:14:16.341Z,99.90
2022-11-22T20:16:52.291Z,99.90
2022-11-22T20:19:23.106Z,99.90
2022-11-22T20:21:53.843Z,99.90
2022-11-22T20:24:30.551Z,99.90
2022-11-22T20:27:02.919Z,99.90
2022-11-22T20:29:39.912Z,99.90
2022-11-22T20:32:11.732Z,99.90
2022-11-22T20:34:42.771Z,99.90
2022-11-22T20:37:13.619Z,99.90
2022-11-22T20:39:51.497Z,99.90
2022-11-22T20:42:37.711Z,99.90
2022-11-22T20:45:09.899Z,99.90
2022-11-22T20:47:40.793Z,99.90
2022-11-22T20:50:12.888Z,99.90
2022-11-22T20:52:43.731Z,99.90
2022-11-22T20:55:20.377Z,99.90
2022-11-22T20:57:51.118Z,99.90
2022-11-22T21:00:22.778Z,99.90
2022-11-22T21:02:55.823Z,99.90
2022-11-22T21:05:27.663Z,99.90
2022-11-22T21:08:03.784Z,99.90
2022-11-22T21:10:38.439Z,99.90
2022-11-22T21:13:09.133Z,99.90
2022-11-22T21:15:40.502Z,99.90
2022-11-22T21:18:27.872Z,99.90
2022-11-22T21:21:04.580Z,99.90
2022-11-22T21:23:36.010Z,99.90
2022-11-22T21:26:11.765Z,99.90
2022-11-22T21:28:45.047Z,99.90
2022-11-22T21:31:15.868Z,99.90
2022-11-22T21:33:46.859Z,99.90
2022-11-22T21:36:18.830Z,99.90
2022-11-22T21:38:50.358Z,99.90
2022-11-22T21:41:39.312Z,99.30
2022-11-22T21:44:11.340Z,97.80
2022-11-22T21:46:43.782Z,96.80
2022-11-22T21:49:14.539Z,95.90
2022-11-22T21:51:46.780Z,93.70
2022-11-22T21:54:17.589Z,90.80
2022-11-22T21:56:51.007Z,89.60
2022-11-22T21:59:21.711Z,86.70
2022-11-22T22:01:52.574Z,87.60
2022-11-22T22:04:23.746Z,85.30
2022-11-22T22:06:59.223Z,83.70
2022-11-22T22:09:30.261Z,83.30
2022-11-22T22:12:03.867Z,83.70
2022-11-22T22:14:37.099Z,82.40
2022-11-22T22:17:08.437Z,82.30
2022-11-22T22:19:40.123Z,81.00
2022-11-22T22:22:11.470Z,81.30
2022-11-22T22:24:42.569Z,80.80
2022-11-22T22:27:15.914Z,79.30
2022-11-22T22:29:50.606Z,78.90
2022-11-22T22:32:23.172Z,78.60
2022-11-22T22:34:55.798Z,79.50
2022-11-22T22:37:26.625Z,79.00
2022-11-22T22:39:58.911Z,78.80
2022-11-22T22:42:32.344Z,78.40
2022-11-22T22:45:05.266Z,78.90
2022-11-22T22:47:36.052Z,78.70
2022-11-22T22:50:07.715Z,78.90
2022-11-22T22:52:40.795Z,78.70
2022-11-22T22:55:14.138Z,79.70
2022-11-22T22:57:47.801Z,78.50
2022-11-22T23:00:20.274Z,78.50
2022-11-22T23:02:51.076Z,77.40
2022-11-22T23:05:24.051Z,79.60
2022-11-22T23:07:55.186Z,78.70
2022-11-22T23:10:25.943Z,81.50
2022-11-22T23:13:01.357Z,82.40
2022-11-22T23:15:57.003Z,83.10
2022-11-22T23:18:25.686Z,82.90
2022-11-22T23:21:01.496Z,83.30
2022-11-22T23:23:32.834Z,84.60
2022-11-22T23:26:05.616Z,85.60
2022-11-22T23:28:39.335Z,86.00
2022-11-22T23:31:11.435Z,89.20
2022-11-22T23:33:42.992Z,89.10
2022-11-22T23:36:15.888Z,89.40
2022-11-22T23:38:47.457Z,90.10
2022-11-22T23:41:20.782Z,90.80
2022-11-22T23:43:55.846Z,92.70
2022-11-22T23:46:28.813Z,93.10
2022-11-22T23:49:01.545Z,94.20
2022-11-22T23:51:33.595Z,93.90
2022-11-22T23:54:06.461Z,94.60
2022-11-22T23:56:38.825Z,94.50
2022-11-22T23:59:12.995Z,94.60
